Loughman, Florida
Current Conditions -  °F | °C
As of 7:50 AM on Thursday 18 Dec 2014 (Local Time) from KISM Reporting Station
Few Clouds Few Clouds  
Wind Chill:   Ceiling: Unl
Heat Index:   Visibility: 10mi
Dew Point:   Wind: 6mph
Humidity: 100%   Direction: 300°WNW
Pressure: 30.17"   Gusts: NA
Location:  28.24°N, 81.57°W
Report Text: KISM 181250Z 30005KT 10SM FEW120 09/09 A3017
Loading
Personal Weather Stations






























Interactive Weather Map New forecast layout! Learn more

10-Day Weather Forecast

Advertisements
Track Severe Weather on mobile